sensor_id;sensor_type;location;lat;lon;timestamp;P1;durP1;ratioP1;P2;durP2;ratioP2
52618;SDS011;38513;53.234;6.568;2023-05-29T00:01:21;22.02;;;3.90;;
52618;SDS011;38513;53.234;6.568;2023-05-29T00:03:49;23.00;;;4.20;;
52618;SDS011;38513;53.234;6.568;2023-05-29T00:06:16;19.90;;;3.95;;
52618;SDS011;38513;53.234;6.568;2023-05-29T00:08:42;17.80;;;4.05;;
52618;SDS011;38513;53.234;6.568;2023-05-29T00:11:08;17.50;;;3.55;;
52618;SDS011;38513;53.234;6.568;2023-05-29T00:13:34;20.90;;;4.35;;
52618;SDS011;38513;53.234;6.568;2023-05-29T00:16:00;22.50;;;4.15;;
52618;SDS011;38513;53.234;6.568;2023-05-29T00:18:28;18.67;;;4.00;;
52618;SDS011;38513;53.234;6.568;2023-05-29T00:20:55;17.87;;;3.30;;
52618;SDS011;38513;53.234;6.568;2023-05-29T00:23:21;20.15;;;3.30;;
52618;SDS011;38513;53.234;6.568;2023-05-29T00:25:47;22.77;;;3.65;;
52618;SDS011;38513;53.234;6.568;2023-05-29T00:28:13;17.00;;;4.13;;
52618;SDS011;38513;53.234;6.568;2023-05-29T00:30:39;21.27;;;3.60;;
52618;SDS011;38513;53.234;6.568;2023-05-29T00:33:05;19.02;;;3.60;;
52618;SDS011;38513;53.234;6.568;2023-05-29T00:35:33;19.30;;;3.85;;
52618;SDS011;38513;53.234;6.568;2023-05-29T00:37:59;19.17;;;3.70;;
52618;SDS011;38513;53.234;6.568;2023-05-29T00:40:25;18.48;;;4.13;;
52618;SDS011;38513;53.234;6.568;2023-05-29T00:42:51;18.17;;;4.10;;
52618;SDS011;38513;53.234;6.568;2023-05-29T00:45:18;19.98;;;4.25;;
52618;SDS011;38513;53.234;6.568;2023-05-29T00:47:44;20.83;;;4.17;;
52618;SDS011;38513;53.234;6.568;2023-05-29T00:50:11;21.35;;;4.47;;
52618;SDS011;38513;53.234;6.568;2023-05-29T00:52:39;17.15;;;3.63;;
52618;SDS011;38513;53.234;6.568;2023-05-29T00:55:06;19.95;;;4.43;;
52618;SDS011;38513;53.234;6.568;2023-05-29T00:57:33;17.80;;;3.60;;
52618;SDS011;38513;53.234;6.568;2023-05-29T00:59:59;18.95;;;4.00;;
52618;SDS011;38513;53.234;6.568;2023-05-29T01:02:26;17.48;;;4.00;;
52618;SDS011;38513;53.234;6.568;2023-05-29T01:04:54;17.20;;;4.07;;
52618;SDS011;38513;53.234;6.568;2023-05-29T01:07:21;19.02;;;3.80;;
52618;SDS011;38513;53.234;6.568;2023-05-29T01:09:47;22.02;;;4.32;;
52618;SDS011;38513;53.234;6.568;2023-05-29T01:15:01;19.57;;;3.70;;
52618;SDS011;38513;53.234;6.568;2023-05-29T01:27:30;20.17;;;4.03;;
52618;SDS011;38513;53.234;6.568;2023-05-29T01:29:57;18.52;;;4.25;;
52618;SDS011;38513;53.234;6.568;2023-05-29T01:32:24;19.85;;;4.32;;
52618;SDS011;38513;53.234;6.568;2023-05-29T01:34:51;14.40;;;3.50;;
52618;SDS011;38513;53.234;6.568;2023-05-29T01:37:17;20.35;;;4.25;;
52618;SDS011;38513;53.234;6.568;2023-05-29T01:39:43;20.08;;;3.88;;
52618;SDS011;38513;53.234;6.568;2023-05-29T01:42:09;18.05;;;4.47;;
52618;SDS011;38513;53.234;6.568;2023-05-29T01:44:35;17.27;;;3.92;;
52618;SDS011;38513;53.234;6.568;2023-05-29T01:47:02;19.98;;;3.90;;
52618;SDS011;38513;53.234;6.568;2023-05-29T01:49:29;19.77;;;3.85;;
52618;SDS011;38513;53.234;6.568;2023-05-29T01:51:56;17.05;;;3.83;;
52618;SDS011;38513;53.234;6.568;2023-05-29T01:54:22;21.57;;;4.07;;
52618;SDS011;38513;53.234;6.568;2023-05-29T01:56:48;16.17;;;4.05;;
52618;SDS011;38513;53.234;6.568;2023-05-29T01:59:18;15.80;;;4.25;;
52618;SDS011;38513;53.234;6.568;2023-05-29T02:01:47;21.83;;;3.87;;
52618;SDS011;38513;53.234;6.568;2023-05-29T02:04:13;20.33;;;4.28;;
52618;SDS011;38513;53.234;6.568;2023-05-29T02:06:39;20.85;;;3.78;;
52618;SDS011;38513;53.234;6.568;2023-05-29T02:09:06;18.88;;;4.30;;
52618;SDS011;38513;53.234;6.568;2023-05-29T02:11:32;19.33;;;4.03;;
52618;SDS011;38513;53.234;6.568;2023-05-29T02:13:58;18.57;;;4.00;;
52618;SDS011;38513;53.234;6.568;2023-05-29T02:16:28;26.88;;;4.40;;
52618;SDS011;38513;53.234;6.568;2023-05-29T02:18:54;23.48;;;4.60;;
52618;SDS011;38513;53.234;6.568;2023-05-29T02:21:20;21.77;;;4.32;;
52618;SDS011;38513;53.234;6.568;2023-05-29T02:23:46;21.25;;;4.40;;
52618;SDS011;38513;53.234;6.568;2023-05-29T02:26:13;20.92;;;4.50;;
52618;SDS011;38513;53.234;6.568;2023-05-29T02:28:41;22.60;;;4.63;;
52618;SDS011;38513;53.234;6.568;2023-05-29T02:31:07;25.00;;;4.30;;
52618;SDS011;38513;53.234;6.568;2023-05-29T02:33:33;19.23;;;4.53;;
52618;SDS011;38513;53.234;6.568;2023-05-29T02:35:59;20.17;;;4.50;;
52618;SDS011;38513;53.234;6.568;2023-05-29T02:38:25;22.13;;;4.37;;
52618;SDS011;38513;53.234;6.568;2023-05-29T02:40:51;19.75;;;4.45;;
52618;SDS011;38513;53.234;6.568;2023-05-29T02:43:20;19.60;;;3.88;;
52618;SDS011;38513;53.234;6.568;2023-05-29T02:45:47;18.30;;;3.72;;
52618;SDS011;38513;53.234;6.568;2023-05-29T02:48:13;19.75;;;4.25;;
52618;SDS011;38513;53.234;6.568;2023-05-29T02:50:39;22.45;;;4.03;;
52618;SDS011;38513;53.234;6.568;2023-05-29T02:53:05;22.90;;;4.40;;
52618;SDS011;38513;53.234;6.568;2023-05-29T02:55:31;20.55;;;4.40;;
52618;SDS011;38513;53.234;6.568;2023-05-29T02:58:00;20.02;;;3.88;;
52618;SDS011;38513;53.234;6.568;2023-05-29T03:00:27;16.52;;;4.10;;
52618;SDS011;38513;53.234;6.568;2023-05-29T03:02:53;22.60;;;4.25;;
52618;SDS011;38513;53.234;6.568;2023-05-29T03:05:20;22.65;;;4.15;;
52618;SDS011;38513;53.234;6.568;2023-05-29T03:07:46;17.93;;;3.70;;
52618;SDS011;38513;53.234;6.568;2023-05-29T03:10:12;18.38;;;3.80;;
52618;SDS011;38513;53.234;6.568;2023-05-29T03:12:42;20.20;;;3.75;;
52618;SDS011;38513;53.234;6.568;2023-05-29T03:15:09;19.05;;;4.28;;
52618;SDS011;38513;53.234;6.568;2023-05-29T03:17:35;19.85;;;4.53;;
52618;SDS011;38513;53.234;6.568;2023-05-29T03:20:03;18.65;;;3.70;;
52618;SDS011;38513;53.234;6.568;2023-05-29T03:22:35;19.40;;;4.22;;
52618;SDS011;38513;53.234;6.568;2023-05-29T03:25:02;18.45;;;3.67;;
52618;SDS011;38513;53.234;6.568;2023-05-29T03:27:29;19.27;;;4.00;;
52618;SDS011;38513;53.234;6.568;2023-05-29T03:29:55;21.60;;;4.03;;
52618;SDS011;38513;53.234;6.568;2023-05-29T03:32:23;20.88;;;4.07;;
52618;SDS011;38513;53.234;6.568;2023-05-29T03:34:49;16.95;;;3.80;;
52618;SDS011;38513;53.234;6.568;2023-05-29T03:37:18;22.20;;;3.88;;
52618;SDS011;38513;53.234;6.568;2023-05-29T03:39:44;15.82;;;3.70;;
52618;SDS011;38513;53.234;6.568;2023-05-29T03:42:10;17.27;;;3.55;;
52618;SDS011;38513;53.234;6.568;2023-05-29T03:44:37;18.65;;;3.75;;
52618;SDS011;38513;53.234;6.568;2023-05-29T03:47:03;18.80;;;3.63;;
52618;SDS011;38513;53.234;6.568;2023-05-29T03:49:29;17.23;;;3.53;;
52618;SDS011;38513;53.234;6.568;2023-05-29T03:51:55;19.17;;;4.07;;
52618;SDS011;38513;53.234;6.568;2023-05-29T03:54:21;15.43;;;3.67;;
52618;SDS011;38513;53.234;6.568;2023-05-29T03:56:47;20.20;;;4.05;;
52618;SDS011;38513;53.234;6.568;2023-05-29T03:59:13;17.05;;;3.50;;
52618;SDS011;38513;53.234;6.568;2023-05-29T04:01:43;20.55;;;3.83;;
52618;SDS011;38513;53.234;6.568;2023-05-29T04:04:09;17.23;;;3.30;;
52618;SDS011;38513;53.234;6.568;2023-05-29T04:06:35;16.57;;;3.73;;
52618;SDS011;38513;53.234;6.568;2023-05-29T04:09:05;20.00;;;3.72;;
52618;SDS011;38513;53.234;6.568;2023-05-29T04:11:32;20.58;;;3.90;;
52618;SDS011;38513;53.234;6.568;2023-05-29T04:14:01;17.48;;;3.70;;
52618;SDS011;38513;53.234;6.568;2023-05-29T04:16:30;19.52;;;3.55;;
52618;SDS011;38513;53.234;6.568;2023-05-29T04:18:56;18.33;;;3.70;;
52618;SDS011;38513;53.234;6.568;2023-05-29T04:21:22;19.00;;;3.78;;
52618;SDS011;38513;53.234;6.568;2023-05-29T04:23:48;15.75;;;3.58;;
52618;SDS011;38513;53.234;6.568;2023-05-29T04:26:15;15.82;;;3.78;;
52618;SDS011;38513;53.234;6.568;2023-05-29T04:28:41;19.35;;;3.63;;
52618;SDS011;38513;53.234;6.568;2023-05-29T04:31:08;20.45;;;3.85;;
52618;SDS011;38513;53.234;6.568;2023-05-29T04:33:39;19.23;;;4.10;;
52618;SDS011;38513;53.234;6.568;2023-05-29T04:36:05;19.92;;;4.20;;
52618;SDS011;38513;53.234;6.568;2023-05-29T04:38:33;15.57;;;3.30;;
52618;SDS011;38513;53.234;6.568;2023-05-29T04:41:02;16.58;;;3.60;;
52618;SDS011;38513;53.234;6.568;2023-05-29T04:43:28;17.75;;;3.58;;
52618;SDS011;38513;53.234;6.568;2023-05-29T04:45:54;18.25;;;3.47;;
52618;SDS011;38513;53.234;6.568;2023-05-29T04:48:20;21.13;;;3.65;;
52618;SDS011;38513;53.234;6.568;2023-05-29T04:50:46;15.98;;;3.75;;
52618;SDS011;38513;53.234;6.568;2023-05-29T04:53:13;19.48;;;3.80;;
52618;SDS011;38513;53.234;6.568;2023-05-29T04:55:39;18.20;;;3.75;;
52618;SDS011;38513;53.234;6.568;2023-05-29T04:58:05;16.63;;;4.10;;
52618;SDS011;38513;53.234;6.568;2023-05-29T05:00:31;16.60;;;3.42;;
52618;SDS011;38513;53.234;6.568;2023-05-29T05:02:58;17.67;;;3.97;;
52618;SDS011;38513;53.234;6.568;2023-05-29T05:05:24;22.67;;;4.47;;
52618;SDS011;38513;53.234;6.568;2023-05-29T05:07:50;17.48;;;3.70;;
52618;SDS011;38513;53.234;6.568;2023-05-29T05:10:16;21.40;;;3.92;;
52618;SDS011;38513;53.234;6.568;2023-05-29T05:12:42;20.35;;;3.97;;
52618;SDS011;38513;53.234;6.568;2023-05-29T05:15:08;18.92;;;4.15;;
52618;SDS011;38513;53.234;6.568;2023-05-29T05:17:35;18.20;;;3.83;;
52618;SDS011;38513;53.234;6.568;2023-05-29T05:20:01;17.60;;;4.03;;
52618;SDS011;38513;53.234;6.568;2023-05-29T05:22:31;19.42;;;4.65;;
52618;SDS011;38513;53.234;6.568;2023-05-29T05:24:57;21.55;;;4.43;;
52618;SDS011;38513;53.234;6.568;2023-05-29T05:27:24;15.63;;;3.90;;
52618;SDS011;38513;53.234;6.568;2023-05-29T05:29:50;17.38;;;4.45;;
52618;SDS011;38513;53.234;6.568;2023-05-29T05:32:17;22.67;;;5.00;;
52618;SDS011;38513;53.234;6.568;2023-05-29T05:34:43;19.15;;;4.75;;
52618;SDS011;38513;53.234;6.568;2023-05-29T05:37:09;16.35;;;3.97;;
52618;SDS011;38513;53.234;6.568;2023-05-29T05:39:35;18.70;;;4.63;;
52618;SDS011;38513;53.234;6.568;2023-05-29T05:42:01;21.67;;;4.38;;
52618;SDS011;38513;53.234;6.568;2023-05-29T05:44:27;21.25;;;4.25;;
52618;SDS011;38513;53.234;6.568;2023-05-29T05:46:53;20.65;;;4.55;;
52618;SDS011;38513;53.234;6.568;2023-05-29T05:49:23;23.13;;;4.45;;
52618;SDS011;38513;53.234;6.568;2023-05-29T05:51:49;23.35;;;4.85;;
52618;SDS011;38513;53.234;6.568;2023-05-29T05:54:15;24.73;;;4.50;;
52618;SDS011;38513;53.234;6.568;2023-05-29T05:56:42;20.35;;;5.25;;
52618;SDS011;38513;53.234;6.568;2023-05-29T05:59:08;22.30;;;5.23;;
52618;SDS011;38513;53.234;6.568;2023-05-29T06:01:34;18.92;;;4.45;;
52618;SDS011;38513;53.234;6.568;2023-05-29T06:04:01;21.60;;;5.25;;
52618;SDS011;38513;53.234;6.568;2023-05-29T06:06:27;20.90;;;4.70;;
52618;SDS011;38513;53.234;6.568;2023-05-29T06:08:56;22.50;;;4.78;;
52618;SDS011;38513;53.234;6.568;2023-05-29T06:11:23;21.20;;;4.88;;
52618;SDS011;38513;53.234;6.568;2023-05-29T06:13:50;21.17;;;4.72;;
52618;SDS011;38513;53.234;6.568;2023-05-29T06:16:18;18.13;;;4.85;;
52618;SDS011;38513;53.234;6.568;2023-05-29T06:18:44;22.38;;;4.88;;
52618;SDS011;38513;53.234;6.568;2023-05-29T06:21:11;22.60;;;4.75;;
52618;SDS011;38513;53.234;6.568;2023-05-29T06:23:38;19.47;;;4.70;;
52618;SDS011;38513;53.234;6.568;2023-05-29T06:26:06;23.50;;;4.80;;
52618;SDS011;38513;53.234;6.568;2023-05-29T06:28:32;18.75;;;4.50;;
52618;SDS011;38513;53.234;6.568;2023-05-29T06:30:59;19.58;;;4.93;;
52618;SDS011;38513;53.234;6.568;2023-05-29T06:33:25;25.08;;;4.75;;
52618;SDS011;38513;53.234;6.568;2023-05-29T06:35:51;20.40;;;4.95;;
52618;SDS011;38513;53.234;6.568;2023-05-29T06:38:17;19.88;;;4.25;;
52618;SDS011;38513;53.234;6.568;2023-05-29T06:40:43;20.67;;;4.13;;
52618;SDS011;38513;53.234;6.568;2023-05-29T06:43:09;24.58;;;5.70;;
52618;SDS011;38513;53.234;6.568;2023-05-29T06:45:36;20.87;;;4.40;;
52618;SDS011;38513;53.234;6.568;2023-05-29T06:48:02;20.98;;;4.60;;
52618;SDS011;38513;53.234;6.568;2023-05-29T06:50:29;22.42;;;4.80;;
52618;SDS011;38513;53.234;6.568;2023-05-29T06:52:55;19.25;;;4.25;;
52618;SDS011;38513;53.234;6.568;2023-05-29T06:55:22;22.75;;;4.78;;
52618;SDS011;38513;53.234;6.568;2023-05-29T06:57:48;21.77;;;5.78;;
52618;SDS011;38513;53.234;6.568;2023-05-29T07:00:14;22.20;;;5.15;;
52618;SDS011;38513;53.234;6.568;2023-05-29T07:02:41;23.92;;;5.07;;
52618;SDS011;38513;53.234;6.568;2023-05-29T07:05:07;19.85;;;4.50;;
52618;SDS011;38513;53.234;6.568;2023-05-29T07:07:33;24.77;;;4.82;;
52618;SDS011;38513;53.234;6.568;2023-05-29T07:10:00;20.40;;;4.47;;
52618;SDS011;38513;53.234;6.568;2023-05-29T07:12:26;20.67;;;4.45;;
52618;SDS011;38513;53.234;6.568;2023-05-29T07:14:52;21.27;;;4.57;;
52618;SDS011;38513;53.234;6.568;2023-05-29T07:17:19;19.50;;;4.18;;
52618;SDS011;38513;53.234;6.568;2023-05-29T07:19:45;20.50;;;4.65;;
52618;SDS011;38513;53.234;6.568;2023-05-29T07:22:14;21.10;;;5.05;;
52618;SDS011;38513;53.234;6.568;2023-05-29T07:24:43;22.38;;;4.55;;
52618;SDS011;38513;53.234;6.568;2023-05-29T07:27:09;21.60;;;4.65;;
52618;SDS011;38513;53.234;6.568;2023-05-29T07:29:36;18.17;;;4.07;;
52618;SDS011;38513;53.234;6.568;2023-05-29T07:32:02;25.08;;;4.38;;
52618;SDS011;38513;53.234;6.568;2023-05-29T07:34:28;20.70;;;4.38;;
52618;SDS011;38513;53.234;6.568;2023-05-29T07:39:26;17.67;;;4.07;;
52618;SDS011;38513;53.234;6.568;2023-05-29T07:41:53;19.38;;;4.85;;
52618;SDS011;38513;53.234;6.568;2023-05-29T07:44:19;20.70;;;4.60;;
52618;SDS011;38513;53.234;6.568;2023-05-29T07:46:45;18.73;;;4.57;;
52618;SDS011;38513;53.234;6.568;2023-05-29T07:49:12;20.13;;;4.50;;
52618;SDS011;38513;53.234;6.568;2023-05-29T07:51:38;23.20;;;4.45;;
52618;SDS011;38513;53.234;6.568;2023-05-29T07:54:04;19.45;;;4.20;;
52618;SDS011;38513;53.234;6.568;2023-05-29T07:56:32;19.52;;;4.05;;
52618;SDS011;38513;53.234;6.568;2023-05-29T07:59:01;19.17;;;4.68;;
52618;SDS011;38513;53.234;6.568;2023-05-29T08:01:31;19.45;;;4.50;;
52618;SDS011;38513;53.234;6.568;2023-05-29T08:03:58;18.77;;;4.13;;
52618;SDS011;38513;53.234;6.568;2023-05-29T08:06:24;21.08;;;4.50;;
52618;SDS011;38513;53.234;6.568;2023-05-29T08:08:51;20.52;;;4.47;;
52618;SDS011;38513;53.234;6.568;2023-05-29T08:11:21;22.65;;;4.55;;
52618;SDS011;38513;53.234;6.568;2023-05-29T08:13:47;21.97;;;4.83;;
52618;SDS011;38513;53.234;6.568;2023-05-29T08:16:14;18.25;;;3.97;;
52618;SDS011;38513;53.234;6.568;2023-05-29T08:18:42;19.95;;;4.35;;
52618;SDS011;38513;53.234;6.568;2023-05-29T08:21:08;20.47;;;4.53;;
52618;SDS011;38513;53.234;6.568;2023-05-29T08:23:35;27.85;;;5.18;;
52618;SDS011;38513;53.234;6.568;2023-05-29T08:26:01;19.50;;;4.30;;
52618;SDS011;38513;53.234;6.568;2023-05-29T08:28:31;18.63;;;4.28;;
52618;SDS011;38513;53.234;6.568;2023-05-29T08:30:57;20.20;;;4.17;;
52618;SDS011;38513;53.234;6.568;2023-05-29T08:33:23;21.23;;;4.32;;
52618;SDS011;38513;53.234;6.568;2023-05-29T08:35:49;18.08;;;4.15;;
52618;SDS011;38513;53.234;6.568;2023-05-29T08:38:16;21.53;;;4.53;;
52618;SDS011;38513;53.234;6.568;2023-05-29T08:40:42;19.40;;;4.57;;
52618;SDS011;38513;53.234;6.568;2023-05-29T08:43:15;20.40;;;4.32;;
52618;SDS011;38513;53.234;6.568;2023-05-29T08:45:42;20.52;;;4.30;;
52618;SDS011;38513;53.234;6.568;2023-05-29T08:48:12;22.02;;;4.90;;
52618;SDS011;38513;53.234;6.568;2023-05-29T08:53:31;20.25;;;4.47;;
52618;SDS011;38513;53.234;6.568;2023-05-29T08:55:57;20.80;;;4.72;;
52618;SDS011;38513;53.234;6.568;2023-05-29T08:58:24;18.83;;;4.63;;
52618;SDS011;38513;53.234;6.568;2023-05-29T09:00:50;18.77;;;4.47;;
52618;SDS011;38513;53.234;6.568;2023-05-29T09:03:17;16.83;;;4.30;;
52618;SDS011;38513;53.234;6.568;2023-05-29T09:05:48;20.92;;;4.97;;
52618;SDS011;38513;53.234;6.568;2023-05-29T09:08:14;19.92;;;4.28;;
52618;SDS011;38513;53.234;6.568;2023-05-29T09:10:41;19.67;;;4.40;;
52618;SDS011;38513;53.234;6.568;2023-05-29T09:13:08;20.55;;;5.07;;
52618;SDS011;38513;53.234;6.568;2023-05-29T09:15:36;17.40;;;4.55;;
52618;SDS011;38513;53.234;6.568;2023-05-29T09:18:05;22.00;;;4.38;;
52618;SDS011;38513;53.234;6.568;2023-05-29T09:20:32;20.70;;;4.65;;
52618;SDS011;38513;53.234;6.568;2023-05-29T09:23:00;21.40;;;4.18;;
52618;SDS011;38513;53.234;6.568;2023-05-29T09:25:27;23.52;;;4.68;;
52618;SDS011;38513;53.234;6.568;2023-05-29T09:28:03;21.52;;;5.07;;
52618;SDS011;38513;53.234;6.568;2023-05-29T09:32:58;23.13;;;5.22;;
52618;SDS011;38513;53.234;6.568;2023-05-29T09:35:25;19.80;;;5.00;;
52618;SDS011;38513;53.234;6.568;2023-05-29T09:37:52;17.80;;;4.47;;
52618;SDS011;38513;53.234;6.568;2023-05-29T09:40:18;21.30;;;4.28;;
52618;SDS011;38513;53.234;6.568;2023-05-29T09:42:44;20.25;;;4.28;;
52618;SDS011;38513;53.234;6.568;2023-05-29T09:45:20;18.30;;;4.27;;
52618;SDS011;38513;53.234;6.568;2023-05-29T09:47:46;23.35;;;4.90;;
52618;SDS011;38513;53.234;6.568;2023-05-29T09:50:20;17.42;;;3.92;;
52618;SDS011;38513;53.234;6.568;2023-05-29T09:52:46;17.80;;;4.75;;
52618;SDS011;38513;53.234;6.568;2023-05-29T09:55:15;18.73;;;4.25;;
52618;SDS011;38513;53.234;6.568;2023-05-29T09:57:44;22.00;;;4.90;;
52618;SDS011;38513;53.234;6.568;2023-05-29T10:00:14;17.65;;;4.38;;
52618;SDS011;38513;53.234;6.568;2023-05-29T10:02:41;19.52;;;4.47;;
52618;SDS011;38513;53.234;6.568;2023-05-29T10:05:07;15.82;;;4.18;;
52618;SDS011;38513;53.234;6.568;2023-05-29T10:07:35;18.48;;;4.60;;
52618;SDS011;38513;53.234;6.568;2023-05-29T10:10:03;16.48;;;4.22;;
52618;SDS011;38513;53.234;6.568;2023-05-29T10:12:34;16.17;;;4.35;;
52618;SDS011;38513;53.234;6.568;2023-05-29T10:15:05;19.58;;;4.63;;
52618;SDS011;38513;53.234;6.568;2023-05-29T10:17:33;17.45;;;4.18;;
52618;SDS011;38513;53.234;6.568;2023-05-29T10:20:01;21.08;;;4.55;;
52618;SDS011;38513;53.234;6.568;2023-05-29T10:22:27;19.48;;;4.55;;
52618;SDS011;38513;53.234;6.568;2023-05-29T10:24:54;18.88;;;4.20;;
52618;SDS011;38513;53.234;6.568;2023-05-29T10:27:22;17.33;;;4.25;;
52618;SDS011;38513;53.234;6.568;2023-05-29T10:35:43;17.30;;;3.95;;
52618;SDS011;38513;53.234;6.568;2023-05-29T10:38:14;18.33;;;4.53;;
52618;SDS011;38513;53.234;6.568;2023-05-29T10:40:45;17.67;;;4.17;;
52618;SDS011;38513;53.234;6.568;2023-05-29T10:45:58;20.25;;;4.60;;
52618;SDS011;38513;53.234;6.568;2023-05-29T10:50:54;20.13;;;4.37;;
52618;SDS011;38513;53.234;6.568;2023-05-29T10:53:24;19.48;;;4.70;;
52618;SDS011;38513;53.234;6.568;2023-05-29T10:55:53;18.70;;;3.97;;
52618;SDS011;38513;53.234;6.568;2023-05-29T10:58:21;19.70;;;4.00;;
52618;SDS011;38513;53.234;6.568;2023-05-29T11:00:50;20.38;;;4.18;;
52618;SDS011;38513;53.234;6.568;2023-05-29T11:03:23;17.35;;;4.57;;
52618;SDS011;38513;53.234;6.568;2023-05-29T11:06:06;18.60;;;4.53;;
52618;SDS011;38513;53.234;6.568;2023-05-29T11:11:14;15.23;;;3.70;;
52618;SDS011;38513;53.234;6.568;2023-05-29T11:13:41;17.50;;;4.15;;
52618;SDS011;38513;53.234;6.568;2023-05-29T11:18:58;15.67;;;3.80;;
52618;SDS011;38513;53.234;6.568;2023-05-29T11:21:38;18.05;;;4.18;;
52618;SDS011;38513;53.234;6.568;2023-05-29T11:24:14;18.33;;;4.57;;
52618;SDS011;38513;53.234;6.568;2023-05-29T11:26:44;18.00;;;4.00;;
52618;SDS011;38513;53.234;6.568;2023-05-29T11:29:11;18.80;;;4.22;;
52618;SDS011;38513;53.234;6.568;2023-05-29T11:31:39;19.00;;;4.10;;
52618;SDS011;38513;53.234;6.568;2023-05-29T11:34:07;20.40;;;4.22;;
52618;SDS011;38513;53.234;6.568;2023-05-29T11:36:35;20.23;;;4.70;;
52618;SDS011;38513;53.234;6.568;2023-05-29T11:39:03;15.88;;;3.80;;
52618;SDS011;38513;53.234;6.568;2023-05-29T11:41:29;17.55;;;4.30;;
52618;SDS011;38513;53.234;6.568;2023-05-29T11:43:59;14.93;;;3.50;;
52618;SDS011;38513;53.234;6.568;2023-05-29T11:46:30;17.23;;;4.05;;
52618;SDS011;38513;53.234;6.568;2023-05-29T11:48:58;17.83;;;3.90;;
52618;SDS011;38513;53.234;6.568;2023-05-29T11:51:24;15.88;;;4.28;;
52618;SDS011;38513;53.234;6.568;2023-05-29T11:53:50;17.90;;;4.05;;
52618;SDS011;38513;53.234;6.568;2023-05-29T11:56:18;17.52;;;4.28;;
52618;SDS011;38513;53.234;6.568;2023-05-29T11:58:44;16.00;;;3.90;;
52618;SDS011;38513;53.234;6.568;2023-05-29T12:01:10;17.60;;;3.88;;
52618;SDS011;38513;53.234;6.568;2023-05-29T12:03:40;21.27;;;4.88;;
52618;SDS011;38513;53.234;6.568;2023-05-29T12:06:07;21.73;;;4.22;;
52618;SDS011;38513;53.234;6.568;2023-05-29T12:08:33;18.23;;;4.18;;
52618;SDS011;38513;53.234;6.568;2023-05-29T12:11:00;19.83;;;4.20;;
52618;SDS011;38513;53.234;6.568;2023-05-29T12:13:26;19.80;;;4.40;;
52618;SDS011;38513;53.234;6.568;2023-05-29T12:15:54;16.15;;;4.15;;
52618;SDS011;38513;53.234;6.568;2023-05-29T12:18:20;20.52;;;4.18;;
52618;SDS011;38513;53.234;6.568;2023-05-29T12:20:47;18.27;;;4.43;;
52618;SDS011;38513;53.234;6.568;2023-05-29T12:23:13;20.80;;;4.47;;
52618;SDS011;38513;53.234;6.568;2023-05-29T12:25:39;15.73;;;4.07;;
52618;SDS011;38513;53.234;6.568;2023-05-29T12:28:05;17.48;;;3.97;;
52618;SDS011;38513;53.234;6.568;2023-05-29T12:30:36;16.53;;;3.80;;
52618;SDS011;38513;53.234;6.568;2023-05-29T12:33:03;17.60;;;3.88;;
52618;SDS011;38513;53.234;6.568;2023-05-29T12:35:31;16.17;;;3.90;;
52618;SDS011;38513;53.234;6.568;2023-05-29T12:40:25;14.65;;;3.35;;
52618;SDS011;38513;53.234;6.568;2023-05-29T12:42:55;16.10;;;3.63;;
52618;SDS011;38513;53.234;6.568;2023-05-29T12:45:21;15.30;;;3.30;;
52618;SDS011;38513;53.234;6.568;2023-05-29T12:47:55;14.02;;;3.60;;
52618;SDS011;38513;53.234;6.568;2023-05-29T12:50:23;16.15;;;3.95;;
52618;SDS011;38513;53.234;6.568;2023-05-29T12:53:06;15.07;;;3.50;;
52618;SDS011;38513;53.234;6.568;2023-05-29T12:55:36;15.20;;;3.80;;
52618;SDS011;38513;53.234;6.568;2023-05-29T12:58:04;16.42;;;3.60;;
52618;SDS011;38513;53.234;6.568;2023-05-29T13:00:30;15.77;;;3.38;;
52618;SDS011;38513;53.234;6.568;2023-05-29T13:02:56;14.90;;;3.28;;
52618;SDS011;38513;53.234;6.568;2023-05-29T13:05:23;17.10;;;3.45;;
52618;SDS011;38513;53.234;6.568;2023-05-29T13:07:50;17.15;;;3.53;;
52618;SDS011;38513;53.234;6.568;2023-05-29T13:10:17;17.48;;;3.65;;
52618;SDS011;38513;53.234;6.568;2023-05-29T13:12:43;13.88;;;3.42;;
52618;SDS011;38513;53.234;6.568;2023-05-29T13:15:12;12.90;;;3.20;;
52618;SDS011;38513;53.234;6.568;2023-05-29T13:17:38;16.70;;;3.25;;
52618;SDS011;38513;53.234;6.568;2023-05-29T13:22:35;17.83;;;4.00;;
52618;SDS011;38513;53.234;6.568;2023-05-29T13:25:01;17.17;;;3.70;;
52618;SDS011;38513;53.234;6.568;2023-05-29T13:27:31;16.38;;;3.78;;
52618;SDS011;38513;53.234;6.568;2023-05-29T13:29:58;13.80;;;3.33;;
52618;SDS011;38513;53.234;6.568;2023-05-29T13:32:24;18.98;;;3.72;;
52618;SDS011;38513;53.234;6.568;2023-05-29T13:34:51;15.52;;;3.58;;
52618;SDS011;38513;53.234;6.568;2023-05-29T13:37:17;17.13;;;3.95;;
52618;SDS011;38513;53.234;6.568;2023-05-29T13:39:43;16.63;;;3.42;;
52618;SDS011;38513;53.234;6.568;2023-05-29T13:42:09;16.90;;;2.90;;
52618;SDS011;38513;53.234;6.568;2023-05-29T13:44:36;16.35;;;4.10;;
52618;SDS011;38513;53.234;6.568;2023-05-29T13:47:02;17.13;;;3.88;;
52618;SDS011;38513;53.234;6.568;2023-05-29T13:49:29;15.73;;;3.45;;
52618;SDS011;38513;53.234;6.568;2023-05-29T13:51:55;16.40;;;4.00;;
52618;SDS011;38513;53.234;6.568;2023-05-29T13:54:21;17.58;;;3.85;;
52618;SDS011;38513;53.234;6.568;2023-05-29T13:56:48;16.02;;;3.85;;
52618;SDS011;38513;53.234;6.568;2023-05-29T13:59:14;16.43;;;3.73;;
52618;SDS011;38513;53.234;6.568;2023-05-29T14:01:43;16.77;;;3.35;;
52618;SDS011;38513;53.234;6.568;2023-05-29T14:04:10;13.50;;;2.50;;
52618;SDS011;38513;53.234;6.568;2023-05-29T14:06:36;14.03;;;3.27;;
52618;SDS011;38513;53.234;6.568;2023-05-29T14:09:03;14.57;;;3.42;;
52618;SDS011;38513;53.234;6.568;2023-05-29T14:11:29;16.45;;;3.30;;
52618;SDS011;38513;53.234;6.568;2023-05-29T14:13:55;14.40;;;3.40;;
52618;SDS011;38513;53.234;6.568;2023-05-29T14:16:22;14.13;;;3.10;;
52618;SDS011;38513;53.234;6.568;2023-05-29T14:18:48;13.35;;;2.80;;
52618;SDS011;38513;53.234;6.568;2023-05-29T14:21:18;14.30;;;3.20;;
52618;SDS011;38513;53.234;6.568;2023-05-29T14:23:45;15.63;;;3.20;;
52618;SDS011;38513;53.234;6.568;2023-05-29T14:26:12;14.82;;;2.90;;
52618;SDS011;38513;53.234;6.568;2023-05-29T14:28:38;13.75;;;3.17;;
52618;SDS011;38513;53.234;6.568;2023-05-29T14:31:04;13.15;;;3.22;;
52618;SDS011;38513;53.234;6.568;2023-05-29T14:33:31;16.33;;;3.53;;
52618;SDS011;38513;53.234;6.568;2023-05-29T14:35:57;17.33;;;3.17;;
52618;SDS011;38513;53.234;6.568;2023-05-29T14:38:24;15.45;;;3.38;;
52618;SDS011;38513;53.234;6.568;2023-05-29T14:40:50;11.90;;;2.92;;
52618;SDS011;38513;53.234;6.568;2023-05-29T14:43:17;13.20;;;3.20;;
52618;SDS011;38513;53.234;6.568;2023-05-29T14:45:43;15.80;;;3.45;;
52618;SDS011;38513;53.234;6.568;2023-05-29T14:48:09;14.60;;;3.60;;
52618;SDS011;38513;53.234;6.568;2023-05-29T14:50:36;15.00;;;3.15;;
52618;SDS011;38513;53.234;6.568;2023-05-29T14:53:02;14.35;;;3.10;;
52618;SDS011;38513;53.234;6.568;2023-05-29T14:55:29;14.98;;;3.60;;
52618;SDS011;38513;53.234;6.568;2023-05-29T14:58:05;15.07;;;3.25;;
52618;SDS011;38513;53.234;6.568;2023-05-29T15:00:31;18.00;;;3.80;;
52618;SDS011;38513;53.234;6.568;2023-05-29T15:02:58;15.73;;;3.05;;
52618;SDS011;38513;53.234;6.568;2023-05-29T15:05:27;14.80;;;3.50;;
52618;SDS011;38513;53.234;6.568;2023-05-29T15:07:54;18.48;;;3.58;;
52618;SDS011;38513;53.234;6.568;2023-05-29T15:10:24;19.85;;;3.90;;
52618;SDS011;38513;53.234;6.568;2023-05-29T15:12:51;14.45;;;3.53;;
52618;SDS011;38513;53.234;6.568;2023-05-29T15:15:22;17.00;;;3.65;;